SWR98W LSZH-EDJA
Flight info
| Callsign | SWR98W |
|---|---|
| Flight time | 0h 26m |
| Altitude | 15000 |
| Route | DEGES Z1 BODAN Z163 NUNRI/N0283F090 Z6 ALOXO ALOXO1C |
| Aircraft | A320/M-SDE3FGHIRWY/LB1 |
Departure
| Time | 2026-05-09 10:21 |
|---|---|
| Airport | Zürich Airport (LSZH) |
Arrival
| Time | 2026-05-09 10:47 |
|---|---|
| Airport | Memmingen Allgau Airport (EDJA) |
| Time | Latitude | Longitude | Altitude | Speed | Heading |
|---|---|---|---|---|---|
| 2026-05-09 09:46 | 47.45410 | 8.56061 | 1404 ft | 0 kts | 186° |
| 2026-05-09 10:09 | 47.45411 | 8.56061 | 1397 ft | 1 kts | 186° |
| 2026-05-09 10:09 | 47.45433 | 8.56065 | 1399 ft | 4 kts | 190° |
| 2026-05-09 10:09 | 47.45459 | 8.56075 | 1405 ft | 4 kts | 204° |
| 2026-05-09 10:09 | 47.45479 | 8.56095 | 1405 ft | 4 kts | 246° |
| 2026-05-09 10:10 | 47.45482 | 8.56111 | 1401 ft | 0 kts | 276° |
| 2026-05-09 10:13 | 47.45483 | 8.56103 | 1397 ft | 3 kts | 276° |
| 2026-05-09 10:13 | 47.45488 | 8.56025 | 1397 ft | 11 kts | 276° |
| 2026-05-09 10:13 | 47.45498 | 8.55880 | 1397 ft | 16 kts | 275° |
| 2026-05-09 10:14 | 47.45510 | 8.55711 | 1400 ft | 17 kts | 276° |
| 2026-05-09 10:14 | 47.45523 | 8.55525 | 1397 ft | 19 kts | 276° |
| 2026-05-09 10:14 | 47.45536 | 8.55339 | 1397 ft | 16 kts | 276° |
| 2026-05-09 10:14 | 47.45609 | 8.55226 | 1399 ft | 17 kts | 334° |
| 2026-05-09 10:15 | 47.45717 | 8.55149 | 1399 ft | 19 kts | 334° |
| 2026-05-09 10:15 | 47.45843 | 8.55062 | 1396 ft | 21 kts | 335° |
| 2026-05-09 10:15 | 47.45981 | 8.54966 | 1397 ft | 22 kts | 335° |
| 2026-05-09 10:15 | 47.46124 | 8.54868 | 1398 ft | 24 kts | 335° |
| 2026-05-09 10:16 | 47.46274 | 8.54766 | 1401 ft | 24 kts | 334° |
| 2026-05-09 10:16 | 47.46434 | 8.54655 | 1403 ft | 26 kts | 335° |
| 2026-05-09 10:16 | 47.46603 | 8.54538 | 1398 ft | 28 kts | 334° |
| 2026-05-09 10:16 | 47.46779 | 8.54420 | 1398 ft | 28 kts | 339° |
| 2026-05-09 10:17 | 47.46958 | 8.54307 | 1405 ft | 27 kts | 336° |
| 2026-05-09 10:17 | 47.47130 | 8.54190 | 1401 ft | 27 kts | 335° |
| 2026-05-09 10:17 | 47.47303 | 8.54073 | 1404 ft | 28 kts | 335° |
| 2026-05-09 10:17 | 47.47486 | 8.53946 | 1396 ft | 30 kts | 334° |
| 2026-05-09 10:18 | 47.47596 | 8.53847 | 1397 ft | 13 kts | 296° |
| 2026-05-09 10:18 | 47.47605 | 8.53784 | 1399 ft | 0 kts | 270° |
| 2026-05-09 10:19 | 47.47605 | 8.53779 | 1398 ft | 3 kts | 269° |
| 2026-05-09 10:19 | 47.47596 | 8.53717 | 1400 ft | 6 kts | 248° |
| 2026-05-09 10:19 | 47.47554 | 8.53659 | 1402 ft | 12 kts | 207° |
| 2026-05-09 10:19 | 47.47478 | 8.53659 | 1400 ft | 10 kts | 161° |
| 2026-05-09 10:20 | 47.47367 | 8.53739 | 1399 ft | 44 kts | 154° |
| 2026-05-09 10:20 | 47.47071 | 8.53938 | 1406 ft | 92 kts | 155° |
| 2026-05-09 10:20 | 47.46317 | 8.54461 | 1403 ft | 147 kts | 155° |
| 2026-05-09 10:20 | 47.45279 | 8.55170 | 1666 ft | 168 kts | 156° |
| 2026-05-09 10:21 | 47.44201 | 8.55870 | 2397 ft | 167 kts | 155° |
| 2026-05-09 10:21 | 47.43225 | 8.56849 | 2815 ft | 184 kts | 125° |
| 2026-05-09 10:21 | 47.42836 | 8.58721 | 3208 ft | 201 kts | 88° |
| 2026-05-09 10:21 | 47.43294 | 8.60752 | 3541 ft | 220 kts | 49° |
| 2026-05-09 10:22 | 47.44391 | 8.62306 | 4274 ft | 224 kts | 41° |
| 2026-05-09 10:22 | 47.45558 | 8.63868 | 4974 ft | 230 kts | 44° |
| 2026-05-09 10:22 | 47.46443 | 8.65802 | 5749 ft | 231 kts | 77° |
| 2026-05-09 10:22 | 47.46514 | 8.68170 | 6492 ft | 236 kts | 94° |
| 2026-05-09 10:23 | 47.46469 | 8.70716 | 6857 ft | 260 kts | 91° |
| 2026-05-09 10:23 | 47.46472 | 8.73494 | 7354 ft | 278 kts | 90° |
| 2026-05-09 10:23 | 47.46502 | 8.76385 | 8146 ft | 284 kts | 89° |
| 2026-05-09 10:23 | 47.46566 | 8.79327 | 9008 ft | 289 kts | 88° |
| 2026-05-09 10:24 | 47.46610 | 8.82324 | 9823 ft | 295 kts | 95° |
| 2026-05-09 10:24 | 47.46271 | 8.85348 | 10441 ft | 307 kts | 102° |
| 2026-05-09 10:24 | 47.45819 | 8.88546 | 10697 ft | 330 kts | 103° |
| 2026-05-09 10:24 | 47.45326 | 8.91936 | 11204 ft | 342 kts | 103° |
| 2026-05-09 10:25 | 47.44822 | 8.95405 | 11940 ft | 348 kts | 103° |
| 2026-05-09 10:25 | 47.44314 | 8.98926 | 12673 ft | 353 kts | 103° |
| 2026-05-09 10:25 | 47.43800 | 9.02503 | 13415 ft | 358 kts | 103° |
| 2026-05-09 10:25 | 47.43281 | 9.06118 | 14112 ft | 362 kts | 103° |
| 2026-05-09 10:26 | 47.42756 | 9.09779 | 14745 ft | 367 kts | 103° |
| 2026-05-09 10:26 | 47.42224 | 9.13479 | 15026 ft | 369 kts | 103° |
| 2026-05-09 10:26 | 47.41686 | 9.17180 | 15099 ft | 370 kts | 103° |
| 2026-05-09 10:26 | 47.41170 | 9.20910 | 15110 ft | 371 kts | 98° |
| 2026-05-09 10:27 | 47.41249 | 9.24702 | 15113 ft | 371 kts | 77° |
| 2026-05-09 10:27 | 47.42225 | 9.28194 | 15114 ft | 370 kts | 55° |
| 2026-05-09 10:27 | 47.43964 | 9.30952 | 15128 ft | 367 kts | 38° |
| 2026-05-09 10:27 | 47.45879 | 9.33465 | 15115 ft | 369 kts | 45° |
| 2026-05-09 10:28 | 47.47489 | 9.36415 | 15114 ft | 370 kts | 56° |
| 2026-05-09 10:28 | 47.48881 | 9.39615 | 15107 ft | 369 kts | 49° |
| 2026-05-09 10:28 | 47.50812 | 9.42064 | 15112 ft | 366 kts | 29° |
| 2026-05-09 10:28 | 47.53110 | 9.43638 | 15123 ft | 364 kts | 19° |
| 2026-05-09 10:29 | 47.55428 | 9.45157 | 15107 ft | 366 kts | 29° |
| 2026-05-09 10:29 | 47.57362 | 9.47600 | 15107 ft | 369 kts | 52° |
| 2026-05-09 10:29 | 47.58500 | 9.50988 | 15105 ft | 370 kts | 75° |
| 2026-05-09 10:29 | 47.58798 | 9.54750 | 15016 ft | 367 kts | 91° |
| 2026-05-09 10:30 | 47.58735 | 9.58546 | 14438 ft | 369 kts | 91° |
| 2026-05-09 10:30 | 47.58872 | 9.62255 | 14134 ft | 362 kts | 79° |
| 2026-05-09 10:30 | 47.59573 | 9.65746 | 14106 ft | 348 kts | 65° |
| 2026-05-09 10:30 | 47.60773 | 9.68869 | 14112 ft | 342 kts | 52° |
| 2026-05-09 10:31 | 47.62261 | 9.71544 | 14116 ft | 340 kts | 48° |
| 2026-05-09 10:31 | 47.63740 | 9.74278 | 14108 ft | 341 kts | 57° |
| 2026-05-09 10:31 | 47.64660 | 9.77496 | 13989 ft | 339 kts | 72° |
| 2026-05-09 10:31 | 47.65312 | 9.80856 | 13551 ft | 338 kts | 74° |
| 2026-05-09 10:32 | 47.65936 | 9.84205 | 13113 ft | 335 kts | 74° |
| 2026-05-09 10:32 | 47.66552 | 9.87511 | 12399 ft | 331 kts | 74° |
| 2026-05-09 10:32 | 47.67165 | 9.90775 | 11637 ft | 328 kts | 74° |
| 2026-05-09 10:32 | 47.67823 | 9.93992 | 10903 ft | 324 kts | 66° |
| 2026-05-09 10:33 | 47.69080 | 9.96680 | 10376 ft | 311 kts | 40° |
| 2026-05-09 10:33 | 47.70736 | 9.98606 | 9982 ft | 298 kts | 35° |
| 2026-05-09 10:33 | 47.72409 | 10.00379 | 9362 ft | 293 kts | 34° |
| 2026-05-09 10:33 | 47.74065 | 10.02104 | 8715 ft | 289 kts | 34° |
| 2026-05-09 10:34 | 47.75712 | 10.03803 | 8055 ft | 286 kts | 34° |
| 2026-05-09 10:34 | 47.78965 | 10.07106 | 6764 ft | 280 kts | 34° |
| 2026-05-09 10:34 | 47.80574 | 10.08708 | 6134 ft | 277 kts | 34° |
| 2026-05-09 10:35 | 47.82164 | 10.10286 | 5483 ft | 274 kts | 34° |
| 2026-05-09 10:35 | 47.83738 | 10.11853 | 4833 ft | 271 kts | 34° |
| 2026-05-09 10:35 | 47.85292 | 10.13410 | 4201 ft | 267 kts | 33° |
| 2026-05-09 10:35 | 47.86972 | 10.14486 | 4007 ft | 265 kts | 10° |
| 2026-05-09 10:36 | 47.88808 | 10.14821 | 3977 ft | 266 kts | 5° |
| 2026-05-09 10:36 | 47.90620 | 10.15041 | 3973 ft | 249 kts | 4° |
| 2026-05-09 10:36 | 47.92295 | 10.15233 | 3985 ft | 238 kts | 4° |
| 2026-05-09 10:36 | 47.93938 | 10.15420 | 3990 ft | 237 kts | 4° |
| 2026-05-09 10:37 | 47.95580 | 10.15607 | 3984 ft | 236 kts | 4° |
| 2026-05-09 10:37 | 47.97211 | 10.15793 | 3984 ft | 235 kts | 4° |
| 2026-05-09 10:37 | 47.98801 | 10.15974 | 3975 ft | 224 kts | 4° |
| 2026-05-09 10:37 | 48.00341 | 10.16143 | 3980 ft | 221 kts | 4° |
| 2026-05-09 10:38 | 48.01862 | 10.16143 | 3981 ft | 217 kts | 348° |
| 2026-05-09 10:38 | 48.03216 | 10.15228 | 3985 ft | 215 kts | 319° |
| 2026-05-09 10:38 | 48.04101 | 10.13466 | 3985 ft | 213 kts | 290° |
| 2026-05-09 10:38 | 48.04319 | 10.11305 | 3984 ft | 212 kts | 263° |
| 2026-05-09 10:39 | 48.04105 | 10.09118 | 3984 ft | 213 kts | 261° |
| 2026-05-09 10:39 | 48.03882 | 10.06933 | 3978 ft | 213 kts | 261° |
| 2026-05-09 10:39 | 48.03659 | 10.04748 | 3982 ft | 213 kts | 261° |
| 2026-05-09 10:39 | 48.03435 | 10.02567 | 3981 ft | 213 kts | 261° |
| 2026-05-09 10:40 | 48.03211 | 10.00385 | 3981 ft | 213 kts | 261° |
| 2026-05-09 10:40 | 48.02985 | 9.98197 | 3980 ft | 213 kts | 261° |
| 2026-05-09 10:40 | 48.02683 | 9.96038 | 3976 ft | 212 kts | 249° |
| 2026-05-09 10:40 | 48.01937 | 9.94150 | 3981 ft | 212 kts | 232° |
| 2026-05-09 10:41 | 48.01003 | 9.92451 | 3981 ft | 212 kts | 225° |
| 2026-05-09 10:41 | 47.99769 | 9.91233 | 3981 ft | 217 kts | 197° |
| 2026-05-09 10:41 | 47.98293 | 9.91108 | 3975 ft | 214 kts | 166° |
| 2026-05-09 10:41 | 47.97029 | 9.92071 | 3998 ft | 197 kts | 137° |
| 2026-05-09 10:42 | 47.96249 | 9.93662 | 3971 ft | 191 kts | 120° |
| 2026-05-09 10:42 | 47.95580 | 9.95376 | 3977 ft | 191 kts | 120° |
| 2026-05-09 10:42 | 47.94906 | 9.97087 | 3979 ft | 192 kts | 120° |
| 2026-05-09 10:42 | 47.94229 | 9.98804 | 3979 ft | 188 kts | 120° |
| 2026-05-09 10:43 | 47.93610 | 10.00380 | 3978 ft | 173 kts | 120° |
| 2026-05-09 10:43 | 47.93005 | 10.01922 | 3980 ft | 172 kts | 120° |
| 2026-05-09 10:43 | 47.92406 | 10.03454 | 3981 ft | 171 kts | 118° |
| 2026-05-09 10:43 | 47.92047 | 10.05138 | 3981 ft | 172 kts | 95° |
| 2026-05-09 10:44 | 47.92166 | 10.06894 | 3980 ft | 172 kts | 71° |
| 2026-05-09 10:44 | 47.92709 | 10.08470 | 3984 ft | 172 kts | 59° |
| 2026-05-09 10:44 | 47.93324 | 10.10003 | 3938 ft | 172 kts | 59° |
| 2026-05-09 10:44 | 47.93929 | 10.11517 | 3795 ft | 164 kts | 59° |
| 2026-05-09 10:45 | 47.94482 | 10.12901 | 3578 ft | 152 kts | 59° |
| 2026-05-09 10:46 | 47.96568 | 10.18134 | 2807 ft | 145 kts | 59° |
| 2026-05-09 10:46 | 47.97086 | 10.19433 | 2613 ft | 146 kts | 59° |
| 2026-05-09 10:46 | 47.97604 | 10.20735 | 2411 ft | 146 kts | 60° |
| 2026-05-09 10:46 | 47.98123 | 10.22044 | 2221 ft | 147 kts | 61° |
| 2026-05-09 10:47 | 47.98622 | 10.23319 | 2082 ft | 133 kts | 60° |
| 2026-05-09 10:47 | 47.99006 | 10.24284 | 2069 ft | 83 kts | 58° |
| 2026-05-09 10:47 | 47.99232 | 10.24823 | 2067 ft | 26 kts | 58° |
| 2026-05-09 10:47 | 47.99234 | 10.24894 | 2066 ft | 0 kts | 146° |
| 2026-05-09 10:48 | 47.99222 | 10.24903 | 2065 ft | 1 kts | 153° |
| 2026-05-09 10:48 | 47.99216 | 10.24908 | 2065 ft | 0 kts | 152° |
| 2026-05-09 10:49 | 47.99214 | 10.24909 | 2065 ft | 1 kts | 156° |
| 2026-05-09 10:49 | 47.99208 | 10.24876 | 2066 ft | 9 kts | 281° |
| 2026-05-09 10:50 | 47.99195 | 10.24747 | 2067 ft | 18 kts | 242° |
| 2026-05-09 10:50 | 47.99121 | 10.24523 | 2068 ft | 29 kts | 243° |
| 2026-05-09 10:50 | 47.99014 | 10.24218 | 2070 ft | 37 kts | 247° |
| 2026-05-09 10:50 | 47.98874 | 10.23896 | 2074 ft | 38 kts | 239° |
| 2026-05-09 10:51 | 47.98735 | 10.23558 | 2080 ft | 37 kts | 238° |
| 2026-05-09 10:51 | 47.98602 | 10.23241 | 2080 ft | 35 kts | 238° |
| 2026-05-09 10:51 | 47.98478 | 10.22934 | 2083 ft | 33 kts | 239° |
| 2026-05-09 10:51 | 47.98370 | 10.22661 | 2089 ft | 23 kts | 239° |
| 2026-05-09 10:52 | 47.98384 | 10.22553 | 2088 ft | 10 kts | 328° |
| 2026-05-09 10:52 | 47.98446 | 10.22561 | 2085 ft | 10 kts | 31° |
| 2026-05-09 10:52 | 47.98479 | 10.22645 | 2084 ft | 10 kts | 56° |
| 2026-05-09 10:52 | 47.98543 | 10.22712 | 2082 ft | 12 kts | 8° |
| 2026-05-09 10:53 | 47.98630 | 10.22712 | 2080 ft | 12 kts | 359° |
| 2026-05-09 10:53 | 47.98652 | 10.22712 | 2078 ft | 0 kts | 359° |
| 2026-05-09 10:53 | 47.98658 | 10.22712 | 2078 ft | 2 kts | 3° |
| 2026-05-09 10:53 | 47.98681 | 10.22728 | 2078 ft | 5 kts | 38° |
| 2026-05-09 10:54 | 47.98697 | 10.22773 | 2076 ft | 5 kts | 60° |
| 2026-05-09 10:54 | 47.98724 | 10.22778 | 2077 ft | 4 kts | 340° |
| 2026-05-09 10:54 | 47.98734 | 10.22774 | 2075 ft | 1 kts | 347° |
| 2026-05-09 10:54 | 47.98746 | 10.22790 | 2077 ft | 2 kts | 53° |
| 2026-05-09 10:55 | 47.98747 | 10.22792 | 2077 ft | 0 kts | 53° |